createdAt,value
2023-02-06T00:03:38.513Z,102347.78
2023-02-06T00:08:41.398Z,102356.06
2023-02-06T00:13:45.519Z,102363.28
2023-02-06T00:18:50.404Z,102361.41
2023-02-06T00:23:55.523Z,102354.38
2023-02-06T00:28:58.355Z,102347.09
2023-02-06T00:34:03.781Z,102354.19
2023-02-06T00:39:06.669Z,102351.53
2023-02-06T00:44:09.468Z,102347.09
2023-02-06T00:49:13.893Z,102348.91
2023-02-06T00:54:16.649Z,102352.50
2023-02-06T00:59:19.390Z,102366.03
2023-02-06T01:04:23.500Z,102367.72
2023-02-06T01:09:26.253Z,102370.38
2023-02-06T01:14:29.213Z,102359.69
2023-02-06T01:19:33.597Z,102370.41
2023-02-06T01:24:37.092Z,102395.59
2023-02-06T01:29:39.861Z,102380.34
2023-02-06T01:34:44.052Z,102380.53
2023-02-06T01:39:46.840Z,102374.06
2023-02-06T01:44:49.728Z,102363.41
2023-02-06T01:49:53.934Z,102363.41
2023-02-06T01:55:00.484Z,102362.56
2023-02-06T02:00:08.207Z,102346.28
2023-02-06T02:05:19.350Z,102359.88
2023-02-06T02:10:22.157Z,102349.00
2023-02-06T02:15:31.770Z,102346.28
2023-02-06T02:20:55.275Z,102340.81
2023-02-06T02:26:25.613Z,102338.25
2023-02-06T02:32:00.721Z,102335.59
2023-02-06T02:37:12.413Z,102318.50
2023-02-06T02:42:21.675Z,102310.44
2023-02-06T02:47:31.404Z,102317.69
2023-02-06T02:52:35.553Z,102314.25
2023-02-06T02:57:38.556Z,102316.94
2023-02-06T03:02:42.981Z,102306.88
2023-02-06T03:07:58.062Z,102291.44
2023-02-06T03:13:07.434Z,102291.03
2023-02-06T03:18:13.652Z,102299.81
2023-02-06T03:23:23.311Z,102296.09
2023-02-06T03:28:32.242Z,102300.50
2023-02-06T03:33:41.120Z,102295.16
2023-02-06T03:38:46.808Z,102297.81
2023-02-06T03:43:52.123Z,102298.72
2023-02-06T03:48:59.665Z,102298.81
2023-02-06T03:54:06.532Z,102302.53
2023-02-06T03:59:09.327Z,102301.75
2023-02-06T04:04:12.109Z,102295.72
2023-02-06T04:09:16.220Z,102293.25
2023-02-06T04:14:19.047Z,102299.69
2023-02-06T04:19:21.791Z,102290.09
2023-02-06T04:24:26.476Z,102290.34
2023-02-06T04:29:29.404Z,102284.19
2023-02-06T04:34:33.212Z,102283.47
2023-02-06T04:39:37.299Z,102292.91
2023-02-06T04:44:40.136Z,102301.78
2023-02-06T04:49:42.868Z,102315.47
2023-02-06T04:54:47.005Z,102305.72
2023-02-06T04:59:49.792Z,102309.53
2023-02-06T05:04:52.647Z,102299.88
2023-02-06T05:09:56.796Z,102291.03
2023-02-06T05:14:59.603Z,102267.31
2023-02-06T05:20:02.403Z,102260.31
2023-02-06T05:25:07.054Z,102257.88
2023-02-06T05:30:11.134Z,102267.06
2023-02-06T05:35:13.887Z,102259.13
2023-02-06T05:40:18.383Z,102276.28
2023-02-06T05:45:21.214Z,102285.38
2023-02-06T05:50:24.071Z,102281.88
2023-02-06T05:55:30.530Z,102276.56
2023-02-06T06:00:33.389Z,102265.00
2023-02-06T06:05:36.447Z,102268.72
2023-02-06T06:10:40.843Z,102256.34
2023-02-06T06:15:43.763Z,102255.44
2023-02-06T06:20:47.383Z,102261.81
2023-02-06T06:25:51.591Z,102274.44
2023-02-06T06:31:01.712Z,102275.47
2023-02-06T06:36:05.186Z,102278.22
2023-02-06T06:41:09.292Z,102287.25
2023-02-06T06:46:12.236Z,102298.09
2023-02-06T06:51:14.963Z,102310.75
2023-02-06T06:56:19.061Z,102310.84
2023-02-06T07:01:22.018Z,102305.59
2023-02-06T07:06:24.775Z,102299.41
2023-02-06T07:11:28.894Z,102305.72
2023-02-06T07:16:32.017Z,102300.47
2023-02-06T07:21:35.698Z,102295.25
2023-02-06T07:26:41.457Z,102294.44
2023-02-06T07:31:44.232Z,102278.44
2023-02-06T07:36:47.201Z,102278.50
2023-02-06T07:41:51.556Z,102283.94
2023-02-06T07:46:58.628Z,102283.09
2023-02-06T07:52:01.407Z,102273.28
2023-02-06T07:57:05.629Z,102267.06
2023-02-06T08:02:10.666Z,102263.50
2023-02-06T08:07:15.098Z,102265.34
2023-02-06T08:12:19.264Z,102264.53
2023-02-06T08:17:22.037Z,102275.34
2023-02-06T08:22:24.799Z,102274.47
2023-02-06T08:27:29.077Z,102278.09
2023-02-06T08:32:34.454Z,102267.41
2023-02-06T08:37:37.226Z,102264.78
2023-02-06T08:42:41.306Z,102255.84
2023-02-06T08:47:44.068Z,102250.50
2023-02-06T08:52:46.957Z,102249.63
2023-02-06T08:57:51.096Z,102252.34
2023-02-06T09:02:54.472Z,102254.22
2023-02-06T09:07:57.673Z,102240.78
2023-02-06T09:13:01.851Z,102256.91
2023-02-06T09:18:04.812Z,102254.91
2023-02-06T09:23:07.528Z,102267.19
2023-02-06T09:28:11.813Z,102265.50
2023-02-06T09:33:14.691Z,102244.31
2023-02-06T09:38:17.579Z,102245.97
2023-02-06T09:43:22.437Z,102242.09
2023-02-06T09:48:28.405Z,102240.31
2023-02-06T09:53:40.138Z,102244.00
2023-02-06T09:58:52.420Z,102233.47
2023-02-06T10:04:10.113Z,102234.75
2023-02-06T10:09:20.211Z,102240.47
2023-02-06T10:14:33.305Z,102245.31
2023-02-06T10:19:43.684Z,102244.06
2023-02-06T10:24:54.586Z,102238.38
2023-02-06T10:29:58.794Z,102245.19
2023-02-06T10:35:14.582Z,102218.16
2023-02-06T10:40:32.938Z,102207.22
2023-02-06T10:45:44.641Z,102216.81
2023-02-06T10:50:51.884Z,102202.38
2023-02-06T10:55:58.696Z,102219.19
2023-02-06T11:01:14.014Z,102222.66
2023-02-06T11:06:29.483Z,102211.69
2023-02-06T11:11:37.349Z,102208.00
2023-02-06T11:16:42.011Z,102207.00
2023-02-06T11:21:55.287Z,102181.78
2023-02-06T11:27:00.217Z,102188.84
2023-02-06T11:32:06.831Z,102184.31
2023-02-06T11:37:32.500Z,102183.25
2023-02-06T11:42:37.898Z,102181.38
2023-02-06T11:47:42.058Z,102173.19
2023-02-06T11:52:47.220Z,102181.16
2023-02-06T11:58:05.056Z,102177.47
2023-02-06T12:03:28.774Z,102190.00
2023-02-06T12:08:41.538Z,102191.63
2023-02-06T12:13:47.532Z,102180.88
2023-02-06T12:18:55.211Z,102190.81
2023-02-06T12:24:02.152Z,102185.38
2023-02-06T12:29:14.645Z,102185.28
2023-02-06T12:34:22.934Z,102180.78
2023-02-06T12:39:32.306Z,102181.66
2023-02-06T12:44:41.510Z,102185.16
2023-02-06T12:49:55.720Z,102190.53
2023-02-06T12:55:07.724Z,102188.69
2023-02-06T13:00:38.889Z,102184.06
2023-02-06T13:05:47.729Z,102202.31
2023-02-06T13:11:00.293Z,102204.56
2023-02-06T13:16:04.095Z,102207.00
2023-02-06T13:21:19.638Z,102203.81
2023-02-06T13:27:04.510Z,102208.13
2023-02-06T13:32:46.916Z,102211.91
2023-02-06T13:37:52.552Z,102212.75
2023-02-06T13:42:58.310Z,102205.81
2023-02-06T13:48:38.067Z,102212.34
2023-02-06T13:54:05.950Z,102219.88
2023-02-06T13:59:17.335Z,102219.50
2023-02-06T14:04:25.117Z,102229.91
2023-02-06T14:09:44.180Z,102226.94
2023-02-06T14:15:00.580Z,102243.75
2023-02-06T14:20:15.614Z,102241.81
2023-02-06T14:25:39.590Z,102250.50
2023-02-06T14:30:52.126Z,102256.66
2023-02-06T14:36:10.960Z,102251.00
2023-02-06T14:41:17.541Z,102251.81
2023-02-06T14:46:21.275Z,102248.13
2023-02-06T14:51:27.992Z,102269.50
2023-02-06T14:56:34.188Z,102262.28
2023-02-06T15:01:37.117Z,102276.56
2023-02-06T15:06:42.219Z,102276.44
2023-02-06T15:11:52.353Z,102282.59
2023-02-06T15:16:59.231Z,102294.16
2023-02-06T15:22:04.466Z,102294.00
2023-02-06T15:27:19.362Z,102309.16
2023-02-06T15:32:31.232Z,102318.03
2023-02-06T15:37:36.000Z,102329.66
2023-02-06T15:42:40.684Z,102334.03
2023-02-06T15:47:46.064Z,102326.81
2023-02-06T15:52:49.248Z,102324.28
2023-02-06T15:57:55.450Z,102343.03
2023-02-06T16:03:03.093Z,102353.84
2023-02-06T16:08:11.410Z,102354.78
2023-02-06T16:13:20.650Z,102366.47
2023-02-06T16:18:31.101Z,102389.75
2023-02-06T16:23:45.415Z,102392.44
2023-02-06T16:28:55.587Z,102401.34
2023-02-06T16:34:03.236Z,102421.88
2023-02-06T16:39:06.193Z,102429.75
2023-02-06T16:44:14.974Z,102425.84
2023-02-06T16:49:20.010Z,102433.56
2023-02-06T16:54:28.660Z,102439.53
2023-02-06T16:59:32.799Z,102423.97
2023-02-06T17:04:35.641Z,102423.75
2023-02-06T17:09:38.512Z,102424.34
2023-02-06T17:14:43.262Z,102425.00
2023-02-06T17:19:46.535Z,102430.50
2023-02-06T17:24:49.591Z,102434.75
2023-02-06T17:29:54.336Z,102450.72
2023-02-06T17:34:58.198Z,102451.59
2023-02-06T17:40:01.044Z,102454.28
2023-02-06T17:45:05.719Z,102460.41
2023-02-06T17:50:10.726Z,102460.41
2023-02-06T17:55:13.903Z,102465.81
2023-02-06T18:00:20.324Z,102468.47
2023-02-06T18:05:24.025Z,102464.94
2023-02-06T18:10:27.692Z,102465.00
2023-02-06T18:15:32.017Z,102463.19
2023-02-06T18:20:36.476Z,102473.94
2023-02-06T18:25:40.452Z,102473.94
2023-02-06T18:30:46.124Z,102464.94
2023-02-06T18:35:50.701Z,102456.81
2023-02-06T18:40:53.939Z,102471.06
2023-02-06T18:45:58.260Z,102475.59
2023-02-06T18:51:01.183Z,102474.63
2023-02-06T18:56:04.586Z,102477.19
2023-02-06T19:01:14.309Z,102480.81
2023-02-06T19:06:18.868Z,102485.22
2023-02-06T19:11:21.896Z,102495.22
2023-02-06T19:16:26.453Z,102486.47
2023-02-06T19:21:29.378Z,102491.03
2023-02-06T19:26:33.126Z,102491.09
2023-02-06T19:31:40.412Z,102476.91
2023-02-06T19:36:43.537Z,102476.84
2023-02-06T19:41:46.371Z,102474.72
2023-02-06T19:46:50.466Z,102478.22
2023-02-06T19:51:53.644Z,102494.56
2023-02-06T19:56:56.534Z,102501.81
2023-02-06T20:02:02.830Z,102516.09
2023-02-06T20:07:05.665Z,102515.16
2023-02-06T20:12:09.821Z,102514.09
2023-02-06T20:17:14.002Z,102533.91
2023-02-06T20:22:16.871Z,102523.19
2023-02-06T20:27:19.747Z,102525.84
2023-02-06T20:32:24.297Z,102534.75
2023-02-06T20:37:27.522Z,102549.56
2023-02-06T20:42:32.011Z,102557.06
2023-02-06T20:47:36.135Z,102538.13
2023-02-06T20:52:38.858Z,102541.75
2023-02-06T20:57:41.592Z,102549.66
2023-02-06T21:02:45.842Z,102568.69
2023-02-06T21:07:48.738Z,102586.69
2023-02-06T21:12:51.542Z,102591.91
2023-02-06T21:17:55.736Z,102582.06
2023-02-06T21:22:58.718Z,102576.59
2023-02-06T21:28:01.765Z,102576.06
2023-02-06T21:33:05.979Z,102566.78
2023-02-06T21:38:09.018Z,102562.19
2023-02-06T21:43:12.458Z,102559.50
2023-02-06T21:48:16.661Z,102572.09
2023-02-06T21:53:19.759Z,102573.88
2023-02-06T21:58:22.512Z,102576.53
2023-02-06T22:03:26.857Z,102569.28
2023-02-06T22:08:29.760Z,102559.41
2023-02-06T22:13:32.493Z,102579.13
2023-02-06T22:18:37.377Z,102596.06
2023-02-06T22:23:41.570Z,102594.19
2023-02-06T22:28:45.175Z,102585.13
2023-02-06T22:33:49.730Z,102575.97
2023-02-06T22:38:55.159Z,102596.59
2023-02-06T22:43:58.496Z,102601.03
2023-02-06T22:49:02.921Z,102605.47
2023-02-06T22:54:09.251Z,102613.50
2023-02-06T22:59:16.819Z,102615.31
2023-02-06T23:04:23.177Z,102613.44
2023-02-06T23:09:28.717Z,102615.09
2023-02-06T23:14:33.024Z,102619.63
2023-02-06T23:19:37.196Z,102625.94
2023-02-06T23:24:40.212Z,102632.09
2023-02-06T23:29:43.063Z,102636.72
2023-02-06T23:34:47.520Z,102635.88
2023-02-06T23:39:50.250Z,102642.22
2023-02-06T23:44:53.147Z,102636.88
2023-02-06T23:49:57.254Z,102626.41
2023-02-06T23:55:00.040Z,102626.56
